createdAt,value
2022-11-23T00:01:32.388Z,98757.50
2022-11-23T00:04:04.239Z,98760.09
2022-11-23T00:06:33.420Z,98761.94
2022-11-23T00:09:02.920Z,98749.94
2022-11-23T00:11:44.498Z,98756.88
2022-11-23T00:14:13.783Z,98755.22
2022-11-23T00:16:42.937Z,98753.38
2022-11-23T00:19:12.201Z,98766.97
2022-11-23T00:21:41.374Z,98766.22
2022-11-23T00:24:13.599Z,98762.03
2022-11-23T00:26:45.666Z,98759.41
2022-11-23T00:29:15.024Z,98761.16
2022-11-23T00:31:44.286Z,98734.53
2022-11-23T00:34:13.782Z,98774.59
2022-11-23T00:36:42.940Z,98766.09
2022-11-23T00:39:12.203Z,98720.03
2022-11-23T00:41:41.341Z,98758.50
2022-11-23T00:44:12.705Z,98760.16
2022-11-23T00:46:41.966Z,98762.63
2022-11-23T00:49:11.094Z,98731.78
2022-11-23T00:51:45.540Z,98770.19
2022-11-23T00:54:15.819Z,98766.06
2022-11-23T00:56:45.044Z,98721.63
2022-11-23T00:59:16.848Z,98754.88
2022-11-23T01:01:46.362Z,98740.25
2022-11-23T01:04:17.549Z,98759.94
2022-11-23T01:06:51.888Z,98745.50
2022-11-23T01:09:26.284Z,98735.16
2022-11-23T01:11:56.150Z,98748.00
2022-11-23T01:14:29.991Z,98731.81
2022-11-23T01:16:59.345Z,98753.16
2022-11-23T01:19:35.351Z,98753.16
2022-11-23T01:22:04.644Z,98760.81
2022-11-23T01:24:33.933Z,98756.63
2022-11-23T01:27:11.571Z,98754.06
2022-11-23T01:29:42.666Z,98742.94
2022-11-23T01:32:11.949Z,98748.81
2022-11-23T01:34:41.091Z,98763.41
2022-11-23T01:37:10.638Z,98757.47
2022-11-23T01:39:40.199Z,98752.31
2022-11-23T01:42:12.753Z,98756.50
2022-11-23T01:44:53.242Z,98736.06
2022-11-23T01:47:22.527Z,98751.50
2022-11-23T01:49:54.989Z,98759.19
2022-11-23T01:52:26.993Z,98724.06
2022-11-23T01:55:06.906Z,98751.41
2022-11-23T01:57:44.017Z,98696.00
2022-11-23T02:00:16.649Z,98744.69
2022-11-23T02:02:52.196Z,98755.81
2022-11-23T02:05:24.736Z,98745.63
2022-11-23T02:07:55.068Z,98755.03
2022-11-23T02:10:29.857Z,98759.25
2022-11-23T02:13:04.476Z,98764.34
2022-11-23T02:15:56.756Z,98734.47
2022-11-23T02:18:28.690Z,98765.16
2022-11-23T02:20:59.656Z,98755.03
2022-11-23T02:23:36.301Z,98744.72
2022-11-23T02:26:11.547Z,98748.91
2022-11-23T02:28:46.109Z,98726.66
2022-11-23T02:31:15.349Z,98734.28
2022-11-23T02:33:44.529Z,98744.53
2022-11-23T02:36:36.456Z,98745.41
2022-11-23T02:39:16.865Z,98730.00
2022-11-23T02:41:51.032Z,98747.94
2022-11-23T02:44:37.947Z,98718.94
2022-11-23T02:47:12.938Z,98716.38
2022-11-23T02:49:43.278Z,98747.13
2022-11-23T02:52:12.811Z,98753.88
2022-11-23T02:54:42.241Z,98742.84
2022-11-23T02:57:13.624Z,98755.66
2022-11-23T02:59:47.286Z,98747.09
2022-11-23T03:02:16.608Z,98739.41
2022-11-23T03:04:47.163Z,98759.94
2022-11-23T03:07:21.486Z,98760.75
2022-11-23T03:09:52.188Z,98736.91
2022-11-23T03:12:24.582Z,98718.16
2022-11-23T03:14:53.816Z,98733.44
2022-11-23T03:17:24.358Z,98756.50
2022-11-23T03:19:53.628Z,98754.81
2022-11-23T03:22:22.853Z,98756.59
2022-11-23T03:27:35.647Z,98762.47
2022-11-23T03:30:06.960Z,98765.06
2022-11-23T03:32:42.727Z,98726.59
2022-11-23T03:35:12.192Z,98771.97
2022-11-23T03:38:00.787Z,98766.84
2022-11-23T03:40:30.147Z,98751.38
2022-11-23T03:43:15.893Z,98766.81
2022-11-23T03:45:55.490Z,98764.16
2022-11-23T03:48:25.049Z,98757.44
2022-11-23T03:50:56.370Z,98765.88
2022-11-23T03:53:25.708Z,98746.25
2022-11-23T03:55:57.134Z,98761.72
2022-11-23T03:58:30.711Z,98729.22
2022-11-23T04:01:00.641Z,98765.22
2022-11-23T04:03:30.249Z,98743.81
2022-11-23T04:06:10.661Z,98756.50
2022-11-23T04:09:02.070Z,98767.50
2022-11-23T04:11:47.476Z,98753.06
2022-11-23T04:14:24.786Z,98741.16
2022-11-23T04:16:54.417Z,98744.66
2022-11-23T04:19:24.259Z,98754.69
2022-11-23T04:21:53.635Z,98690.72
2022-11-23T04:24:23.858Z,98766.63
2022-11-23T04:26:55.999Z,98760.75
2022-11-23T04:29:34.080Z,98762.44
2022-11-23T04:32:04.078Z,98753.00
2022-11-23T04:34:33.483Z,98787.06
2022-11-23T04:37:13.411Z,98785.50
2022-11-23T04:39:46.047Z,98758.19
2022-11-23T04:42:25.675Z,98781.38
2022-11-23T04:45:02.002Z,98775.41
2022-11-23T04:47:34.826Z,98766.00
2022-11-23T04:50:10.588Z,98748.84
2022-11-23T04:52:40.009Z,98753.16
2022-11-23T04:55:15.496Z,98754.78
2022-11-23T04:57:56.076Z,98770.22
2022-11-23T05:00:30.096Z,98772.81
2022-11-23T05:03:11.669Z,98772.03
2022-11-23T05:05:43.268Z,98780.41
2022-11-23T05:08:17.682Z,98773.59
2022-11-23T05:11:02.752Z,98776.13
2022-11-23T05:13:32.314Z,98772.75
2022-11-23T05:16:03.609Z,98755.75
2022-11-23T05:18:33.421Z,98787.25
2022-11-23T05:21:03.115Z,98778.59
2022-11-23T05:23:33.042Z,98774.41
2022-11-23T05:26:02.764Z,98791.53
2022-11-23T05:28:41.640Z,98782.16
2022-11-23T05:31:16.960Z,98795.69
2022-11-23T05:33:48.616Z,98778.72
2022-11-23T05:36:23.104Z,98788.16
2022-11-23T05:38:53.267Z,98769.28
2022-11-23T05:41:29.690Z,98796.69
2022-11-23T05:44:02.251Z,98801.81
2022-11-23T05:46:43.561Z,98782.25
2022-11-23T05:49:13.005Z,98792.44
2022-11-23T05:51:42.901Z,98798.41
2022-11-23T05:54:13.385Z,98788.84
2022-11-23T05:56:59.807Z,98804.28
2022-11-23T05:59:43.909Z,98808.47
2022-11-23T06:02:23.138Z,98778.06
2022-11-23T06:04:57.012Z,98785.63
2022-11-23T06:07:40.490Z,98792.41
2022-11-23T06:10:14.586Z,98791.50
2022-11-23T06:12:49.597Z,98805.16
2022-11-23T06:15:21.363Z,98790.78
2022-11-23T06:17:53.258Z,98796.66
2022-11-23T06:20:24.447Z,98809.47
2022-11-23T06:22:59.782Z,98800.16
2022-11-23T06:25:29.154Z,98798.44
2022-11-23T06:28:07.736Z,98802.69
2022-11-23T06:30:45.945Z,98806.97
2022-11-23T06:33:18.132Z,98800.22
2022-11-23T06:35:57.021Z,98803.63
2022-11-23T06:38:30.153Z,98795.94
2022-11-23T06:41:10.018Z,98789.13
2022-11-23T06:43:39.273Z,98807.78
2022-11-23T06:46:09.361Z,98812.94
2022-11-23T06:48:45.408Z,98789.09
2022-11-23T06:51:17.143Z,98800.94
2022-11-23T06:53:47.554Z,98799.28
2022-11-23T06:56:17.592Z,98799.41
2022-11-23T06:58:47.004Z,98805.31
2022-11-23T07:01:31.217Z,98795.16
2022-11-23T07:04:09.892Z,98806.94
2022-11-23T07:06:48.425Z,98814.56
2022-11-23T07:09:29.376Z,98800.06
2022-11-23T07:12:22.333Z,98810.47
2022-11-23T07:14:51.686Z,98820.53
2022-11-23T07:17:20.855Z,98827.50
2022-11-23T07:19:52.346Z,98806.97
2022-11-23T07:22:21.658Z,98810.44
2022-11-23T07:24:50.850Z,98841.88
2022-11-23T07:27:20.172Z,98836.84
2022-11-23T07:29:49.426Z,98806.97
2022-11-23T07:32:24.013Z,98835.19
2022-11-23T07:34:55.165Z,98827.47
2022-11-23T07:37:24.670Z,98844.41
2022-11-23T07:39:58.534Z,98821.56
2022-11-23T07:42:37.186Z,98807.81
2022-11-23T07:45:10.871Z,98806.16
2022-11-23T07:47:42.522Z,98814.75
2022-11-23T07:50:15.197Z,98815.63
2022-11-23T07:52:44.448Z,98814.69
2022-11-23T07:55:13.719Z,98814.63
2022-11-23T07:57:42.979Z,98824.69
2022-11-23T08:00:14.051Z,98834.13
2022-11-23T08:03:04.177Z,98812.94
2022-11-23T08:05:41.292Z,98807.72
2022-11-23T08:08:11.441Z,98828.31
2022-11-23T08:10:46.150Z,98842.75
2022-11-23T08:13:23.448Z,98811.31
2022-11-23T08:15:55.258Z,98812.03
2022-11-23T08:18:25.817Z,98838.38
2022-11-23T08:20:57.464Z,98767.53
2022-11-23T08:23:27.432Z,98820.56
2022-11-23T08:25:56.649Z,98830.88
2022-11-23T08:28:25.935Z,98810.41
2022-11-23T08:30:55.420Z,98810.41
2022-11-23T08:33:24.721Z,98836.78
2022-11-23T08:35:53.927Z,98825.72
2022-11-23T08:38:25.938Z,98821.50
2022-11-23T08:40:59.734Z,98828.28
2022-11-23T08:43:28.968Z,98806.41
2022-11-23T08:46:03.905Z,98830.16
2022-11-23T08:48:35.261Z,98822.38
2022-11-23T08:51:04.446Z,98830.03
2022-11-23T08:53:35.770Z,98859.97
2022-11-23T08:56:06.526Z,98844.56
2022-11-23T08:58:36.367Z,98844.63
2022-11-23T09:01:09.956Z,98842.19
2022-11-23T09:03:39.465Z,98843.16
2022-11-23T09:06:09.013Z,98844.94
2022-11-23T09:08:45.326Z,98845.75
2022-11-23T09:11:15.743Z,98824.44
2022-11-23T09:13:44.986Z,98837.03
2022-11-23T09:16:14.128Z,98827.69
2022-11-23T09:18:44.556Z,98837.06
2022-11-23T09:21:13.668Z,98817.56
2022-11-23T09:23:44.857Z,98793.56
2022-11-23T09:26:14.282Z,98818.25
2022-11-23T09:28:45.061Z,98825.84
2022-11-23T09:31:14.539Z,98829.31
2022-11-23T09:33:43.697Z,98825.94
2022-11-23T09:36:13.227Z,98790.88
2022-11-23T09:38:56.257Z,98838.75
2022-11-23T09:41:52.108Z,98840.47
2022-11-23T09:44:28.461Z,98785.78
2022-11-23T09:47:12.900Z,98837.03
2022-11-23T09:49:57.760Z,98826.72
2022-11-23T09:52:27.600Z,98821.41
2022-11-23T09:55:03.023Z,98848.69
2022-11-23T09:57:36.537Z,98830.06
2022-11-23T10:00:09.432Z,98810.09
2022-11-23T10:02:43.046Z,98835.03
2022-11-23T10:05:19.282Z,98855.53
2022-11-23T10:08:06.631Z,98844.63
2022-11-23T10:10:48.789Z,98841.19
2022-11-23T10:13:35.848Z,98807.63
2022-11-23T10:16:31.489Z,98841.03
2022-11-23T10:19:07.289Z,98836.63
2022-11-23T10:21:50.327Z,98813.94
2022-11-23T10:24:21.541Z,98816.31
2022-11-23T10:26:53.257Z,98823.00
2022-11-23T10:29:30.381Z,98855.34
2022-11-23T10:32:00.788Z,98834.91
2022-11-23T10:34:52.572Z,98849.47
2022-11-23T10:37:24.088Z,98823.03
2022-11-23T10:39:53.318Z,98831.69
2022-11-23T10:42:31.367Z,98820.41
2022-11-23T10:45:02.248Z,98839.22
2022-11-23T10:47:42.756Z,98831.63
2022-11-23T10:50:26.958Z,98841.03
2022-11-23T10:52:58.915Z,98842.63
2022-11-23T10:55:29.208Z,98818.84
2022-11-23T10:58:01.694Z,98816.13
2022-11-23T11:00:36.168Z,98823.94
2022-11-23T11:03:24.596Z,98846.13
2022-11-23T11:06:08.619Z,98836.75
2022-11-23T11:08:50.560Z,98845.31
2022-11-23T11:11:27.262Z,98858.66
2022-11-23T11:14:07.545Z,98864.50
2022-11-23T11:16:38.495Z,98854.47
2022-11-23T11:19:25.060Z,98851.16
2022-11-23T11:21:54.423Z,98844.41
2022-11-23T11:24:29.981Z,98858.84
2022-11-23T11:27:02.220Z,98866.53
2022-11-23T11:29:39.007Z,98883.56
2022-11-23T11:32:13.796Z,98857.75
2022-11-23T11:34:47.974Z,98851.03
2022-11-23T11:37:26.968Z,98856.94
2022-11-23T11:39:59.275Z,98882.44
2022-11-23T11:42:38.701Z,98891.88
2022-11-23T11:45:18.692Z,98871.47
2022-11-23T11:47:54.031Z,98896.03
2022-11-23T11:50:31.720Z,98883.50
2022-11-23T11:53:07.849Z,98889.16
2022-11-23T11:55:53.034Z,98879.03
2022-11-23T11:58:26.267Z,98888.44
2022-11-23T12:01:06.868Z,98913.91
2022-11-23T12:03:43.471Z,98889.16
2022-11-23T12:06:26.352Z,98914.56
2022-11-23T12:09:03.361Z,98915.50
2022-11-23T12:11:32.751Z,98881.31
2022-11-23T12:14:05.046Z,98909.34
2022-11-23T12:16:45.004Z,98900.03
2022-11-23T12:19:21.122Z,98913.75
2022-11-23T12:22:13.597Z,98934.31
2022-11-23T12:25:01.682Z,98935.94
2022-11-23T12:27:48.210Z,98925.72
2022-11-23T12:30:28.136Z,98906.13
2022-11-23T12:33:19.670Z,98915.28
2022-11-23T12:36:16.763Z,98957.78
2022-11-23T12:38:57.845Z,98939.88
2022-11-23T12:41:36.181Z,98950.16
2022-11-23T12:44:29.041Z,98930.44
2022-11-23T12:47:06.281Z,98930.63
2022-11-23T12:55:28.752Z,98941.03
2022-11-23T12:58:05.889Z,98960.63
2022-11-23T13:00:40.506Z,98972.59
2022-11-23T13:03:43.413Z,98958.22
2022-11-23T13:06:59.356Z,98950.44
2022-11-23T13:09:55.142Z,98966.34
2022-11-23T13:12:45.261Z,98978.41
2022-11-23T13:15:31.387Z,98974.22
2022-11-23T13:18:07.094Z,98958.94
2022-11-23T13:20:51.824Z,98970.00
2022-11-23T13:23:22.509Z,98988.53
2022-11-23T13:26:16.529Z,98974.88
2022-11-23T13:28:56.429Z,98978.34
2022-11-23T13:31:30.422Z,98988.66
2022-11-23T13:34:02.767Z,99000.34
2022-11-23T13:39:58.063Z,98987.50
2022-11-23T13:42:29.680Z,98955.75
2022-11-23T13:45:25.377Z,98992.00
2022-11-23T13:48:08.919Z,98991.78
2022-11-23T13:50:45.472Z,99024.16
2022-11-23T13:53:24.616Z,99011.41
2022-11-23T13:55:56.265Z,99015.91
2022-11-23T13:58:42.659Z,99007.13
2022-11-23T14:01:34.928Z,99031.78
2022-11-23T14:04:21.966Z,99022.44
2022-11-23T14:06:56.333Z,99035.31
2022-11-23T14:09:30.902Z,99033.47
2022-11-23T14:12:10.651Z,99044.72
2022-11-23T14:14:51.248Z,99037.69
2022-11-23T14:17:53.328Z,99007.13
2022-11-23T14:20:38.137Z,99050.34
2022-11-23T14:23:29.061Z,99040.31
2022-11-23T14:26:16.163Z,99061.25
2022-11-23T14:28:56.584Z,99051.84
2022-11-23T14:31:39.289Z,99020.91
2022-11-23T14:34:22.996Z,99043.19
2022-11-23T14:37:01.289Z,99070.97
2022-11-23T14:39:48.776Z,99064.03
2022-11-23T14:42:21.979Z,99056.41
2022-11-23T14:44:52.894Z,99060.75
2022-11-23T14:47:29.637Z,99073.66
2022-11-23T14:52:40.729Z,99059.38
2022-11-23T14:55:21.606Z,99069.53
2022-11-23T14:57:54.467Z,99047.81
2022-11-23T15:00:32.718Z,99062.25
2022-11-23T15:03:34.547Z,99062.41
2022-11-23T15:06:09.454Z,99074.34
2022-11-23T15:08:56.411Z,99054.75
2022-11-23T15:11:34.838Z,99068.88
2022-11-23T15:14:04.232Z,99076.66
2022-11-23T15:16:42.116Z,99073.50
2022-11-23T15:19:20.777Z,99094.47
2022-11-23T15:21:57.257Z,99028.69
2022-11-23T15:24:28.219Z,99050.47
2022-11-23T15:27:12.343Z,99090.41
2022-11-23T15:29:54.268Z,99046.72
2022-11-23T15:32:33.926Z,99089.41
2022-11-23T15:35:07.815Z,99094.69
2022-11-23T15:37:51.088Z,99110.03
2022-11-23T15:40:21.932Z,99057.13
2022-11-23T15:42:53.347Z,99106.34
2022-11-23T15:45:38.609Z,99121.19
2022-11-23T15:48:18.804Z,99117.66
2022-11-23T15:50:52.708Z,99141.28
2022-11-23T15:53:27.622Z,99120.59
2022-11-23T15:56:01.188Z,99128.78
2022-11-23T15:58:36.736Z,99076.78
2022-11-23T16:01:13.105Z,99135.56
2022-11-23T16:03:52.128Z,99131.78
2022-11-23T16:06:26.621Z,99093.47
2022-11-23T16:08:58.014Z,99132.13
2022-11-23T16:11:33.196Z,99156.19
2022-11-23T16:14:17.216Z,99122.69
2022-11-23T16:16:48.396Z,99147.56
2022-11-23T16:19:25.732Z,99163.78
2022-11-23T16:22:02.214Z,99147.63
2022-11-23T16:24:36.410Z,99167.34
2022-11-23T16:27:15.255Z,99146.81
2022-11-23T16:29:44.447Z,99139.84
2022-11-23T16:32:25.258Z,99158.53
2022-11-23T16:35:00.624Z,99149.91
2022-11-23T16:37:29.901Z,99167.97
2022-11-23T16:40:01.495Z,99171.41
2022-11-23T16:42:30.768Z,99180.91
2022-11-23T16:45:00.065Z,99173.91
2022-11-23T16:47:30.279Z,99177.88
2022-11-23T16:49:59.725Z,99138.38
2022-11-23T16:52:29.019Z,99169.22
2022-11-23T16:55:03.259Z,99186.16
2022-11-23T16:57:36.427Z,99196.63
2022-11-23T17:00:16.046Z,99188.06
2022-11-23T17:02:45.525Z,99169.22
2022-11-23T17:05:19.253Z,99184.94
2022-11-23T17:07:49.054Z,99180.88
2022-11-23T17:10:18.876Z,99192.63
2022-11-23T17:12:53.486Z,99156.34
2022-11-23T17:15:25.295Z,99188.03
2022-11-23T17:17:54.593Z,99184.00
2022-11-23T17:20:24.256Z,99201.78
2022-11-23T17:23:04.596Z,99140.50
2022-11-23T17:25:35.359Z,99207.56
2022-11-23T17:28:08.281Z,99202.44
2022-11-23T17:30:37.530Z,99220.13
2022-11-23T17:33:06.687Z,99205.44
2022-11-23T17:35:38.234Z,99218.56
2022-11-23T17:38:16.715Z,99241.97
2022-11-23T17:40:47.150Z,99215.31
2022-11-23T17:43:18.362Z,99203.47
2022-11-23T17:45:48.026Z,99222.59
2022-11-23T17:48:18.738Z,99206.81
2022-11-23T17:50:48.479Z,99228.19
2022-11-23T17:53:22.595Z,99231.75
2022-11-23T17:55:58.632Z,99231.56
2022-11-23T17:58:29.881Z,99246.41
2022-11-23T18:01:04.532Z,99248.34
2022-11-23T18:03:33.886Z,99252.31
2022-11-23T18:06:03.242Z,99237.22
2022-11-23T18:08:37.424Z,99247.72
2022-11-23T18:11:07.696Z,99248.34
2022-11-23T18:13:39.476Z,99268.72
2022-11-23T18:16:09.012Z,99275.88
2022-11-23T18:18:38.975Z,99271.41
2022-11-23T18:21:09.429Z,99234.00
2022-11-23T18:23:39.316Z,99273.41
2022-11-23T18:26:17.168Z,99268.41
2022-11-23T18:28:48.936Z,99257.44
2022-11-23T18:31:19.006Z,99281.72
2022-11-23T18:33:48.512Z,99271.53
2022-11-23T18:36:17.775Z,99248.47
2022-11-23T18:38:47.198Z,99304.38
2022-11-23T18:41:17.185Z,99282.38
2022-11-23T18:43:49.055Z,99277.97
2022-11-23T18:46:19.148Z,99301.03
2022-11-23T18:48:49.100Z,99295.97
2022-11-23T18:51:23.354Z,99306.16
2022-11-23T18:53:55.098Z,99293.34
2022-11-23T18:56:24.128Z,99316.19
2022-11-23T18:58:55.341Z,99316.53
2022-11-23T19:01:26.221Z,99273.47
2022-11-23T19:03:55.744Z,99300.00
2022-11-23T19:06:25.417Z,99310.13
2022-11-23T19:08:57.014Z,99315.34
2022-11-23T19:11:28.936Z,99311.78
2022-11-23T19:14:06.001Z,99332.09
2022-11-23T19:16:40.226Z,99315.84
2022-11-23T19:19:09.885Z,99330.03
2022-11-23T19:21:39.351Z,99324.88
2022-11-23T19:24:10.986Z,99311.41
2022-11-23T19:26:41.653Z,99325.84
2022-11-23T19:29:13.354Z,99323.84
2022-11-23T19:31:42.730Z,99325.81
2022-11-23T19:34:12.116Z,99334.97
2022-11-23T19:36:41.566Z,99330.78
2022-11-23T19:39:10.977Z,99325.81
2022-11-23T19:41:46.662Z,99346.38
2022-11-23T19:44:17.932Z,99370.06
2022-11-23T19:46:47.597Z,99354.00
2022-11-23T19:49:16.907Z,99361.56
2022-11-23T19:51:50.595Z,99355.06
2022-11-23T19:54:25.013Z,99332.72
2022-11-23T19:56:54.636Z,99361.25
2022-11-23T19:59:27.278Z,99355.63
2022-11-23T20:01:56.563Z,99364.41
2022-11-23T20:04:25.761Z,99382.09
2022-11-23T20:06:54.895Z,99375.34
2022-11-23T20:09:24.506Z,99359.97
2022-11-23T20:11:53.854Z,99349.13
2022-11-23T20:14:23.030Z,99376.72
2022-11-23T20:16:55.526Z,99402.19
2022-11-23T20:19:25.493Z,99371.09
2022-11-23T20:22:01.103Z,99384.00
2022-11-23T20:24:30.454Z,99386.50
2022-11-23T20:26:59.629Z,99391.47
2022-11-23T20:29:29.741Z,99357.84
2022-11-23T20:32:01.023Z,99395.41
2022-11-23T20:34:36.031Z,99395.31
2022-11-23T20:37:11.030Z,99410.50
2022-11-23T20:39:45.239Z,99388.84
2022-11-23T20:42:14.394Z,99408.34
2022-11-23T20:44:44.112Z,99414.34
2022-11-23T20:47:15.784Z,99414.06
2022-11-23T20:49:44.715Z,99435.06
2022-11-23T20:52:13.981Z,99408.34
2022-11-23T20:57:23.868Z,99398.44
2022-11-23T20:59:53.153Z,99421.69
2022-11-23T21:02:29.534Z,99398.53
2022-11-23T21:04:58.809Z,99443.88
2022-11-23T21:07:27.948Z,99421.47
2022-11-23T21:10:02.311Z,99410.22
2022-11-23T21:12:50.386Z,99444.72
2022-11-23T21:15:19.920Z,99448.69
2022-11-23T21:17:51.073Z,99441.59
2022-11-23T21:20:25.674Z,99466.97
2022-11-23T21:22:55.058Z,99463.72
2022-11-23T21:25:24.407Z,99462.06
2022-11-23T21:27:54.631Z,99445.34
2022-11-23T21:30:25.188Z,99447.72
2022-11-23T21:35:31.877Z,99422.97
2022-11-23T21:38:01.409Z,99434.13
2022-11-23T21:40:30.928Z,99472.38
2022-11-23T21:43:00.131Z,99482.84
2022-11-23T21:45:29.719Z,99455.31
2022-11-23T21:50:43.626Z,99477.38
2022-11-23T21:53:17.949Z,99479.09
2022-11-23T21:55:47.557Z,99452.78
2022-11-23T21:58:16.728Z,99486.97
2022-11-23T22:00:46.375Z,99477.25
2022-11-23T22:03:17.616Z,99491.19
2022-11-23T22:05:57.833Z,99469.81
2022-11-23T22:08:29.548Z,99481.97
2022-11-23T22:11:12.511Z,99486.69
2022-11-23T22:13:42.625Z,99499.84
2022-11-23T22:16:18.237Z,99415.41
2022-11-23T22:18:55.366Z,99496.47
2022-11-23T22:21:27.738Z,99497.03
2022-11-23T22:23:57.077Z,99498.94
2022-11-23T22:26:27.237Z,99481.28
2022-11-23T22:31:37.489Z,99531.06
2022-11-23T22:34:12.038Z,99500.19
2022-11-23T22:36:41.761Z,99518.47
2022-11-23T22:39:11.534Z,99500.72
2022-11-23T22:41:41.398Z,99499.78
2022-11-23T22:44:12.372Z,99513.00
2022-11-23T22:46:47.933Z,99517.56
2022-11-23T22:49:18.989Z,99513.56
2022-11-23T22:51:48.781Z,99506.66
2022-11-23T22:56:53.003Z,99535.03
2022-11-23T22:59:22.231Z,99541.84
2022-11-23T23:01:51.497Z,99528.03
2022-11-23T23:04:22.770Z,99532.66
2022-11-23T23:06:52.268Z,99522.22
2022-11-23T23:09:21.542Z,99533.94
2022-11-23T23:11:50.825Z,99518.53
2022-11-23T23:14:20.444Z,99518.53
2022-11-23T23:16:50.294Z,99495.84
2022-11-23T23:22:04.108Z,99510.47
2022-11-23T23:24:33.753Z,99507.97
2022-11-23T23:27:03.259Z,99510.69
2022-11-23T23:29:32.895Z,99520.13
2022-11-23T23:32:02.512Z,99524.63
2022-11-23T23:34:33.946Z,99534.75
2022-11-23T23:37:03.429Z,99531.13
2022-11-23T23:39:32.622Z,99532.97
2022-11-23T23:42:02.076Z,99546.78
2022-11-23T23:44:31.839Z,99507.66
2022-11-23T23:47:01.410Z,99551.13
2022-11-23T23:49:34.163Z,99525.72
2022-11-23T23:52:04.157Z,99542.69
2022-11-23T23:54:33.951Z,99526.28
2022-11-23T23:57:09.409Z,99552.81
2022-11-23T23:59:38.656Z,99552.94
